Главная страница
METAR-TAF:

METAR-TAF

Аэропорты :

Йоханнесбург, Южно-Африканская Республика

широта: 26-09S, долгота: 28-00E, высота над уровнем моря: 1626 м

Текущие метеонаблюдения

Эта сводка был подготовлена 3 часа и 51 минут назад, в 17:00 UTC
Штиль
Температура 25°C
Влажность 34%
Давление 1020 hPa

METAR: FAJB 021700Z AUTO 00000KT //// // ////// 25/08 Q1020

Время: 22:51 (20:51 UTC)


TAF: отсутствует

Метеонаблюдения и прогнозы для более 4000 аэропортов (сводки METAR и TAF).

Имеющиеся станции представлены на карте желтыми и красными точками.

Чтобы увидеть название станции, наведите на нее мышь.

Затем щелкните, чтобы увидеть метеонаблюдения и метеопрогнозы.

Управление картой: чтобы увеличить масштаб, щелкните зеленые кнопки с черным крестиком; чтобы уменьшить масштаб, щелкните зеленую кнопку с тире; для просмотра соседних карт щелкайте зеленые стрелки.


METAR-TAF: